TAM4510 SBEG-SBFZ
Flight info
| Callsign | TAM4510 |
|---|---|
| Flight time | 3h 8m |
| Altitude | 37000 |
| Route | XOLOK DCT PUDVO UZ12 ESDAB DCT FLZ |
| Aircraft | A320/M-SDE3FGHIRWY/LB1 |
Departure
| Time | 2026-04-26 20:05 |
|---|---|
| Airport | Eduardo Gomes International Airport (SBEG) |
Arrival
| Time | 2026-04-26 23:13 |
|---|---|
| Airport | Pinto Martins International Airport (SBFZ) |
| Time | Latitude | Longitude | Altitude | Speed | Heading |
|---|---|---|---|---|---|
| 2026-04-26 19:41 | -3.03273 | -60.04623 | 269 ft | 0 kts | 1° |
| 2026-04-26 19:56 | -3.03289 | -60.04623 | 268 ft | 2 kts | 1° |
| 2026-04-26 19:57 | -3.03306 | -60.04623 | 268 ft | 2 kts | 1° |
| 2026-04-26 19:57 | -3.03322 | -60.04624 | 268 ft | 2 kts | 11° |
| 2026-04-26 19:57 | -3.03338 | -60.04628 | 268 ft | 2 kts | 26° |
| 2026-04-26 19:57 | -3.03352 | -60.04637 | 268 ft | 2 kts | 63° |
| 2026-04-26 19:58 | -3.03355 | -60.04644 | 268 ft | 0 kts | 88° |
| 2026-04-26 20:00 | -3.03355 | -60.04633 | 268 ft | 7 kts | 88° |
| 2026-04-26 20:01 | -3.03352 | -60.04532 | 268 ft | 18 kts | 83° |
| 2026-04-26 20:01 | -3.03334 | -60.04414 | 268 ft | 16 kts | 97° |
| 2026-04-26 20:01 | -3.03414 | -60.04368 | 268 ft | 13 kts | 163° |
| 2026-04-26 20:01 | -3.03492 | -60.04329 | 268 ft | 12 kts | 144° |
| 2026-04-26 20:02 | -3.03554 | -60.04261 | 268 ft | 18 kts | 124° |
| 2026-04-26 20:02 | -3.03609 | -60.04116 | 268 ft | 24 kts | 105° |
| 2026-04-26 20:02 | -3.03654 | -60.03951 | 268 ft | 25 kts | 105° |
| 2026-04-26 20:02 | -3.03680 | -60.03852 | 269 ft | 22 kts | 105° |
| 2026-04-26 20:03 | -3.03766 | -60.03767 | 269 ft | 0 kts | 172° |
| 2026-04-26 20:03 | -3.03768 | -60.03767 | 269 ft | 3 kts | 172° |
| 2026-04-26 20:03 | -3.03844 | -60.03774 | 268 ft | 13 kts | 213° |
| 2026-04-26 20:04 | -3.03862 | -60.03834 | 268 ft | 0 kts | 268° |
| 2026-04-26 20:04 | -3.03863 | -60.03872 | 268 ft | 21 kts | 269° |
| 2026-04-26 20:04 | -3.03861 | -60.04279 | 270 ft | 93 kts | 270° |
| 2026-04-26 20:04 | -3.03860 | -60.05126 | 268 ft | 149 kts | 270° |
| 2026-04-26 20:05 | -3.03833 | -60.06264 | 623 ft | 164 kts | 272° |
| 2026-04-26 20:05 | -3.03819 | -60.07425 | 1221 ft | 175 kts | 271° |
| 2026-04-26 20:05 | -3.03813 | -60.08716 | 1550 ft | 200 kts | 270° |
| 2026-04-26 20:05 | -3.03822 | -60.10196 | 1982 ft | 225 kts | 270° |
| 2026-04-26 20:06 | -3.03514 | -60.11809 | 2493 ft | 248 kts | 300° |
| 2026-04-26 20:06 | -3.02269 | -60.13017 | 3004 ft | 262 kts | 337° |
| 2026-04-26 20:06 | -3.00476 | -60.13281 | 3845 ft | 264 kts | 7° |
| 2026-04-26 20:06 | -2.98657 | -60.12954 | 4772 ft | 266 kts | 14° |
| 2026-04-26 20:07 | -2.96845 | -60.12515 | 5581 ft | 270 kts | 14° |
| 2026-04-26 20:07 | -2.95006 | -60.12067 | 6381 ft | 273 kts | 14° |
| 2026-04-26 20:07 | -2.93162 | -60.11620 | 7125 ft | 277 kts | 13° |
| 2026-04-26 20:07 | -2.91238 | -60.11324 | 7874 ft | 281 kts | 6° |
| 2026-04-26 20:08 | -2.89264 | -60.11184 | 8625 ft | 285 kts | 5° |
| 2026-04-26 20:08 | -2.87352 | -60.10745 | 9343 ft | 288 kts | 26° |
| 2026-04-26 20:08 | -2.85777 | -60.09510 | 10025 ft | 291 kts | 53° |
| 2026-04-26 20:08 | -2.84951 | -60.07665 | 10654 ft | 296 kts | 78° |
| 2026-04-26 20:09 | -2.84641 | -60.05571 | 10835 ft | 319 kts | 82° |
| 2026-04-26 20:09 | -2.84364 | -60.03283 | 10966 ft | 342 kts | 83° |
| 2026-04-26 20:09 | -2.84085 | -60.00845 | 11085 ft | 363 kts | 83° |
| 2026-04-26 20:09 | -2.83788 | -59.98279 | 11417 ft | 374 kts | 83° |
| 2026-04-26 20:10 | -2.83481 | -59.95707 | 11944 ft | 379 kts | 82° |
| 2026-04-26 20:10 | -2.83155 | -59.93065 | 12517 ft | 382 kts | 82° |
| 2026-04-26 20:10 | -2.82821 | -59.90411 | 13092 ft | 386 kts | 82° |
| 2026-04-26 20:10 | -2.82479 | -59.87729 | 13662 ft | 389 kts | 82° |
| 2026-04-26 20:11 | -2.82136 | -59.85028 | 14166 ft | 392 kts | 82° |
| 2026-04-26 20:11 | -2.81796 | -59.82340 | 14632 ft | 396 kts | 82° |
| 2026-04-26 20:11 | -2.81449 | -59.79593 | 15133 ft | 398 kts | 82° |
| 2026-04-26 20:12 | -2.80749 | -59.74052 | 16135 ft | 403 kts | 82° |
| 2026-04-26 20:12 | -2.80392 | -59.71254 | 16637 ft | 406 kts | 82° |
| 2026-04-26 20:12 | -2.80038 | -59.68484 | 17126 ft | 408 kts | 82° |
| 2026-04-26 20:12 | -2.79680 | -59.65644 | 17620 ft | 411 kts | 82° |
| 2026-04-26 20:13 | -2.79321 | -59.62791 | 18100 ft | 413 kts | 82° |
| 2026-04-26 20:13 | -2.78960 | -59.59951 | 18503 ft | 416 kts | 82° |
| 2026-04-26 20:13 | -2.78595 | -59.57073 | 18905 ft | 417 kts | 82° |
| 2026-04-26 20:13 | -2.78231 | -59.54187 | 19301 ft | 419 kts | 82° |
| 2026-04-26 20:14 | -2.77865 | -59.51272 | 19692 ft | 421 kts | 82° |
| 2026-04-26 20:14 | -2.77501 | -59.48381 | 20073 ft | 423 kts | 82° |
| 2026-04-26 20:14 | -2.77128 | -59.45447 | 20447 ft | 425 kts | 82° |
| 2026-04-26 20:14 | -2.76755 | -59.42499 | 20814 ft | 427 kts | 82° |
| 2026-04-26 20:15 | -2.76383 | -59.39543 | 21173 ft | 429 kts | 82° |
| 2026-04-26 20:15 | -2.76012 | -59.36607 | 21523 ft | 430 kts | 82° |
| 2026-04-26 20:15 | -2.75634 | -59.33622 | 21861 ft | 432 kts | 82° |
| 2026-04-26 20:15 | -2.75253 | -59.30623 | 22189 ft | 434 kts | 82° |
| 2026-04-26 20:16 | -2.74869 | -59.27603 | 22490 ft | 437 kts | 82° |
| 2026-04-26 20:16 | -2.74489 | -59.24613 | 22805 ft | 438 kts | 82° |
| 2026-04-26 20:16 | -2.74100 | -59.21559 | 23109 ft | 440 kts | 82° |
| 2026-04-26 20:16 | -2.73718 | -59.18545 | 23397 ft | 442 kts | 82° |
| 2026-04-26 20:17 | -2.73332 | -59.15481 | 23638 ft | 443 kts | 82° |
| 2026-04-26 20:17 | -2.72945 | -59.12406 | 23871 ft | 445 kts | 82° |
| 2026-04-26 20:17 | -2.72556 | -59.09326 | 24104 ft | 446 kts | 82° |
| 2026-04-26 20:17 | -2.72296 | -59.07281 | 24253 ft | 447 kts | 82° |
| 2026-04-26 20:18 | -2.71773 | -59.03180 | 24570 ft | 449 kts | 82° |
| 2026-04-26 20:18 | -2.71375 | -59.00058 | 24785 ft | 450 kts | 82° |
| 2026-04-26 20:18 | -2.70985 | -58.96979 | 25005 ft | 452 kts | 82° |
| 2026-04-26 20:18 | -2.70590 | -58.93848 | 25225 ft | 453 kts | 82° |
| 2026-04-26 20:19 | -2.70193 | -58.90704 | 25442 ft | 454 kts | 82° |
| 2026-04-26 20:19 | -2.69794 | -58.87557 | 25663 ft | 455 kts | 82° |
| 2026-04-26 20:19 | -2.69398 | -58.84449 | 25873 ft | 456 kts | 82° |
| 2026-04-26 20:19 | -2.68994 | -58.81282 | 26087 ft | 458 kts | 82° |
| 2026-04-26 20:20 | -2.68591 | -58.78112 | 26293 ft | 459 kts | 82° |
| 2026-04-26 20:20 | -2.68191 | -58.74974 | 26485 ft | 460 kts | 82° |
| 2026-04-26 20:20 | -2.67785 | -58.71785 | 26686 ft | 461 kts | 82° |
| 2026-04-26 20:20 | -2.67379 | -58.68593 | 26863 ft | 462 kts | 82° |
| 2026-04-26 20:21 | -2.66980 | -58.65441 | 27052 ft | 462 kts | 82° |
| 2026-04-26 20:21 | -2.66577 | -58.62240 | 27311 ft | 461 kts | 83° |
| 2026-04-26 20:21 | -2.66175 | -58.59057 | 27575 ft | 460 kts | 82° |
| 2026-04-26 20:21 | -2.65771 | -58.55874 | 27835 ft | 459 kts | 82° |
| 2026-04-26 20:22 | -2.65379 | -58.52736 | 28106 ft | 459 kts | 84° |
| 2026-04-26 20:22 | -2.65256 | -58.49554 | 28378 ft | 458 kts | 89° |
| 2026-04-26 20:22 | -2.65204 | -58.46353 | 28658 ft | 457 kts | 89° |
| 2026-04-26 20:22 | -2.65155 | -58.43210 | 28947 ft | 456 kts | 89° |
| 2026-04-26 20:23 | -2.65107 | -58.40029 | 29237 ft | 455 kts | 89° |
| 2026-04-26 20:23 | -2.65061 | -58.36862 | 29534 ft | 454 kts | 89° |
| 2026-04-26 20:23 | -2.65014 | -58.33735 | 29838 ft | 452 kts | 89° |
| 2026-04-26 20:23 | -2.64963 | -58.30582 | 30121 ft | 451 kts | 89° |
| 2026-04-26 20:24 | -2.64908 | -58.27442 | 30365 ft | 451 kts | 88° |
| 2026-04-26 20:24 | -2.64854 | -58.24307 | 30605 ft | 450 kts | 89° |
| 2026-04-26 20:24 | -2.64804 | -58.21207 | 30843 ft | 450 kts | 89° |
| 2026-04-26 20:24 | -2.64750 | -58.18072 | 31094 ft | 449 kts | 88° |
| 2026-04-26 20:25 | -2.64694 | -58.14954 | 31346 ft | 448 kts | 89° |
| 2026-04-26 20:25 | -2.64657 | -58.12876 | 31508 ft | 448 kts | 89° |
| 2026-04-26 20:25 | -2.64585 | -58.08744 | 31828 ft | 448 kts | 89° |
| 2026-04-26 20:25 | -2.64534 | -58.05629 | 32077 ft | 447 kts | 89° |
| 2026-04-26 20:26 | -2.64485 | -58.02509 | 32309 ft | 447 kts | 89° |
| 2026-04-26 20:26 | -2.64435 | -57.99387 | 32551 ft | 447 kts | 89° |
| 2026-04-26 20:26 | -2.64383 | -57.96266 | 32796 ft | 447 kts | 89° |
| 2026-04-26 20:26 | -2.64333 | -57.93196 | 33041 ft | 446 kts | 89° |
| 2026-04-26 20:27 | -2.64282 | -57.90079 | 33283 ft | 446 kts | 88° |
| 2026-04-26 20:27 | -2.64226 | -57.86978 | 33518 ft | 446 kts | 88° |
| 2026-04-26 20:27 | -2.64173 | -57.83862 | 33761 ft | 446 kts | 88° |
| 2026-04-26 20:27 | -2.64125 | -57.80794 | 33983 ft | 446 kts | 89° |
| 2026-04-26 20:28 | -2.64075 | -57.77685 | 34202 ft | 446 kts | 89° |
| 2026-04-26 20:28 | -2.64023 | -57.74583 | 34417 ft | 445 kts | 89° |
| 2026-04-26 20:28 | -2.63967 | -57.71480 | 34627 ft | 445 kts | 89° |
| 2026-04-26 20:28 | -2.63909 | -57.68422 | 34828 ft | 445 kts | 89° |
| 2026-04-26 20:29 | -2.63852 | -57.65328 | 35026 ft | 444 kts | 89° |
| 2026-04-26 20:29 | -2.63798 | -57.62236 | 35217 ft | 444 kts | 89° |
| 2026-04-26 20:29 | -2.63746 | -57.59140 | 35405 ft | 444 kts | 89° |
| 2026-04-26 20:29 | -2.63697 | -57.56057 | 35589 ft | 444 kts | 89° |
| 2026-04-26 20:30 | -2.63650 | -57.52970 | 35775 ft | 443 kts | 89° |
| 2026-04-26 20:30 | -2.63599 | -57.49880 | 35956 ft | 443 kts | 89° |
| 2026-04-26 20:30 | -2.63546 | -57.46830 | 36133 ft | 443 kts | 89° |
| 2026-04-26 20:30 | -2.63491 | -57.43749 | 36302 ft | 442 kts | 89° |
| 2026-04-26 20:31 | -2.63440 | -57.40659 | 36473 ft | 442 kts | 89° |
| 2026-04-26 20:31 | -2.63389 | -57.37579 | 36623 ft | 442 kts | 89° |
| 2026-04-26 20:31 | -2.63335 | -57.34540 | 36791 ft | 442 kts | 89° |
| 2026-04-26 20:32 | -2.63221 | -57.28354 | 36876 ft | 446 kts | 89° |
| 2026-04-26 20:32 | -2.63117 | -57.22160 | 36872 ft | 448 kts | 89° |
| 2026-04-26 20:33 | -2.63017 | -57.15908 | 36878 ft | 448 kts | 89° |
| 2026-04-26 20:33 | -2.62910 | -57.09706 | 36872 ft | 448 kts | 89° |
| 2026-04-26 20:34 | -2.62802 | -57.03461 | 36873 ft | 448 kts | 89° |
| 2026-04-26 20:34 | -2.62692 | -56.97261 | 36878 ft | 448 kts | 89° |
| 2026-04-26 20:35 | -2.62578 | -56.91011 | 36881 ft | 448 kts | 89° |
| 2026-04-26 20:35 | -2.62467 | -56.84794 | 36880 ft | 448 kts | 89° |
| 2026-04-26 20:36 | -2.62356 | -56.78544 | 36884 ft | 449 kts | 89° |
| 2026-04-26 20:36 | -2.62246 | -56.72326 | 36882 ft | 449 kts | 89° |
| 2026-04-26 20:37 | -2.62142 | -56.66097 | 36888 ft | 449 kts | 89° |
| 2026-04-26 20:37 | -2.62026 | -56.59833 | 36887 ft | 448 kts | 89° |
| 2026-04-26 20:38 | -2.61914 | -56.53610 | 36888 ft | 449 kts | 89° |
| 2026-04-26 20:38 | -2.61806 | -56.47358 | 36886 ft | 449 kts | 89° |
| 2026-04-26 20:39 | -2.61958 | -56.41157 | 36889 ft | 449 kts | 99° |
| 2026-04-26 20:39 | -2.62986 | -56.34984 | 36892 ft | 449 kts | 99° |
| 2026-04-26 20:40 | -2.63832 | -56.29834 | 36896 ft | 449 kts | 99° |
| 2026-04-26 20:40 | -2.64846 | -56.23678 | 36897 ft | 449 kts | 99° |
| 2026-04-26 20:41 | -2.65868 | -56.17498 | 36898 ft | 449 kts | 99° |
| 2026-04-26 20:41 | -2.66883 | -56.11374 | 36896 ft | 449 kts | 99° |
| 2026-04-26 20:42 | -2.67899 | -56.05191 | 36896 ft | 449 kts | 99° |
| 2026-04-26 20:42 | -2.68902 | -55.99036 | 36893 ft | 449 kts | 99° |
| 2026-04-26 20:43 | -2.69908 | -55.92895 | 36894 ft | 449 kts | 99° |
| 2026-04-26 20:43 | -2.70924 | -55.86712 | 36892 ft | 449 kts | 99° |
| 2026-04-26 20:44 | -2.71934 | -55.80573 | 36889 ft | 449 kts | 99° |
| 2026-04-26 20:44 | -2.72951 | -55.74438 | 36893 ft | 448 kts | 99° |
| 2026-04-26 20:45 | -2.73966 | -55.68290 | 36895 ft | 447 kts | 99° |
| 2026-04-26 20:45 | -2.74975 | -55.62138 | 36894 ft | 447 kts | 99° |
| 2026-04-26 20:46 | -2.75981 | -55.56034 | 36895 ft | 447 kts | 99° |
| 2026-04-26 20:46 | -2.76992 | -55.49884 | 36891 ft | 447 kts | 99° |
| 2026-04-26 20:47 | -2.77996 | -55.43774 | 36885 ft | 447 kts | 99° |
| 2026-04-26 20:47 | -2.79002 | -55.37648 | 36885 ft | 446 kts | 99° |
| 2026-04-26 20:48 | -2.80013 | -55.31491 | 36883 ft | 446 kts | 99° |
| 2026-04-26 20:48 | -2.81014 | -55.25399 | 36885 ft | 446 kts | 99° |
| 2026-04-26 20:49 | -2.82020 | -55.19255 | 36876 ft | 446 kts | 99° |
| 2026-04-26 20:49 | -2.83020 | -55.13136 | 36875 ft | 446 kts | 99° |
| 2026-04-26 20:50 | -2.84018 | -55.07034 | 36876 ft | 447 kts | 99° |
| 2026-04-26 20:50 | -2.85025 | -55.00888 | 36873 ft | 447 kts | 99° |
| 2026-04-26 20:51 | -2.86030 | -54.94747 | 36885 ft | 446 kts | 99° |
| 2026-04-26 20:51 | -2.87030 | -54.88652 | 36885 ft | 446 kts | 99° |
| 2026-04-26 20:52 | -2.88038 | -54.82513 | 36886 ft | 446 kts | 99° |
| 2026-04-26 20:52 | -2.89038 | -54.76412 | 36890 ft | 446 kts | 99° |
| 2026-04-26 20:53 | -2.90035 | -54.70319 | 36887 ft | 445 kts | 99° |
| 2026-04-26 20:53 | -2.91038 | -54.64200 | 36888 ft | 445 kts | 99° |
| 2026-04-26 20:54 | -2.92034 | -54.58097 | 36889 ft | 445 kts | 99° |
| 2026-04-26 20:54 | -2.93034 | -54.51959 | 36887 ft | 445 kts | 99° |
| 2026-04-26 20:55 | -2.94028 | -54.45871 | 36894 ft | 445 kts | 99° |
| 2026-04-26 20:55 | -2.95021 | -54.39778 | 36892 ft | 445 kts | 99° |
| 2026-04-26 20:56 | -2.96021 | -54.33637 | 36895 ft | 445 kts | 99° |
| 2026-04-26 20:56 | -2.97021 | -54.27546 | 36892 ft | 445 kts | 99° |
| 2026-04-26 20:57 | -2.98020 | -54.21457 | 36894 ft | 445 kts | 99° |
| 2026-04-26 20:57 | -2.99021 | -54.15324 | 36895 ft | 445 kts | 99° |
| 2026-04-26 20:58 | -3.00014 | -54.09223 | 36890 ft | 445 kts | 99° |
| 2026-04-26 20:58 | -3.01005 | -54.03130 | 36895 ft | 445 kts | 99° |
| 2026-04-26 20:59 | -3.01997 | -53.96998 | 36898 ft | 446 kts | 99° |
| 2026-04-26 20:59 | -3.02992 | -53.90901 | 36898 ft | 446 kts | 99° |
| 2026-04-26 21:00 | -3.03992 | -53.84790 | 36895 ft | 446 kts | 99° |
| 2026-04-26 21:00 | -3.04994 | -53.78658 | 36899 ft | 446 kts | 99° |
| 2026-04-26 21:01 | -3.05989 | -53.72534 | 36897 ft | 446 kts | 99° |
| 2026-04-26 21:01 | -3.06977 | -53.66425 | 36897 ft | 446 kts | 99° |
| 2026-04-26 21:02 | -3.07977 | -53.60271 | 36891 ft | 446 kts | 98° |
| 2026-04-26 21:02 | -3.08968 | -53.54157 | 36880 ft | 447 kts | 98° |
| 2026-04-26 21:03 | -3.09971 | -53.48022 | 36881 ft | 448 kts | 98° |
| 2026-04-26 21:03 | -3.10978 | -53.41838 | 36890 ft | 448 kts | 98° |
| 2026-04-26 21:04 | -3.11969 | -53.35689 | 36889 ft | 449 kts | 98° |
| 2026-04-26 21:04 | -3.12968 | -53.29553 | 36895 ft | 449 kts | 98° |
| 2026-04-26 21:05 | -3.13968 | -53.23367 | 36898 ft | 449 kts | 99° |
| 2026-04-26 21:05 | -3.14974 | -53.17199 | 36905 ft | 448 kts | 99° |
| 2026-04-26 21:06 | -3.15966 | -53.11064 | 36906 ft | 448 kts | 98° |
| 2026-04-26 21:06 | -3.16952 | -53.04938 | 36907 ft | 447 kts | 99° |
| 2026-04-26 21:07 | -3.17946 | -52.98792 | 36916 ft | 447 kts | 99° |
| 2026-04-26 21:07 | -3.18937 | -52.92676 | 36918 ft | 445 kts | 99° |
| 2026-04-26 21:08 | -3.19930 | -52.86534 | 36913 ft | 444 kts | 99° |
| 2026-04-26 21:08 | -3.20910 | -52.80454 | 36911 ft | 444 kts | 99° |
| 2026-04-26 21:09 | -3.21894 | -52.74385 | 36909 ft | 443 kts | 98° |
| 2026-04-26 21:09 | -3.22878 | -52.68290 | 36911 ft | 442 kts | 98° |
| 2026-04-26 21:10 | -3.23856 | -52.62243 | 36914 ft | 441 kts | 98° |
| 2026-04-26 21:10 | -3.24841 | -52.56170 | 36912 ft | 441 kts | 98° |
| 2026-04-26 21:11 | -3.25821 | -52.50126 | 36913 ft | 441 kts | 98° |
| 2026-04-26 21:11 | -3.26805 | -52.44051 | 36894 ft | 440 kts | 98° |
| 2026-04-26 21:12 | -3.27770 | -52.38015 | 36885 ft | 440 kts | 98° |
| 2026-04-26 21:12 | -3.28742 | -52.31973 | 36880 ft | 440 kts | 98° |
| 2026-04-26 21:13 | -3.29719 | -52.25932 | 36882 ft | 440 kts | 98° |
| 2026-04-26 21:13 | -3.30695 | -52.19874 | 36879 ft | 441 kts | 98° |
| 2026-04-26 21:14 | -3.31671 | -52.13805 | 36880 ft | 441 kts | 98° |
| 2026-04-26 21:14 | -3.32651 | -52.07772 | 36883 ft | 441 kts | 98° |
| 2026-04-26 21:15 | -3.33627 | -52.01708 | 36890 ft | 441 kts | 98° |
| 2026-04-26 21:15 | -3.34590 | -51.95667 | 36890 ft | 441 kts | 98° |
| 2026-04-26 21:16 | -3.35567 | -51.89576 | 36897 ft | 441 kts | 98° |
| 2026-04-26 21:16 | -3.36547 | -51.83534 | 36898 ft | 441 kts | 98° |
| 2026-04-26 21:17 | -3.37092 | -51.77443 | 36902 ft | 440 kts | 91° |
| 2026-04-26 21:17 | -3.37317 | -51.71310 | 36899 ft | 441 kts | 91° |
| 2026-04-26 21:18 | -3.37543 | -51.65168 | 36899 ft | 441 kts | 91° |
| 2026-04-26 21:18 | -3.37769 | -51.59064 | 36901 ft | 441 kts | 91° |
| 2026-04-26 21:19 | -3.38002 | -51.52928 | 36906 ft | 440 kts | 91° |
| 2026-04-26 21:19 | -3.38229 | -51.46821 | 36908 ft | 440 kts | 91° |
| 2026-04-26 21:20 | -3.38461 | -51.40694 | 36909 ft | 440 kts | 91° |
| 2026-04-26 21:20 | -3.38686 | -51.34578 | 36907 ft | 439 kts | 91° |
| 2026-04-26 21:21 | -3.38913 | -51.28484 | 36909 ft | 439 kts | 91° |
| 2026-04-26 21:21 | -3.39138 | -51.22397 | 36910 ft | 438 kts | 91° |
| 2026-04-26 21:22 | -3.39363 | -51.16286 | 36909 ft | 438 kts | 91° |
| 2026-04-26 21:22 | -3.39585 | -51.10214 | 36908 ft | 438 kts | 91° |
| 2026-04-26 21:23 | -3.39918 | -51.01104 | 36906 ft | 438 kts | 91° |
| 2026-04-26 21:23 | -3.40143 | -50.94998 | 36908 ft | 438 kts | 91° |
| 2026-04-26 21:24 | -3.40374 | -50.88932 | 36910 ft | 438 kts | 91° |
| 2026-04-26 21:24 | -3.40607 | -50.82821 | 36911 ft | 438 kts | 91° |
| 2026-04-26 21:25 | -3.40824 | -50.76744 | 36911 ft | 437 kts | 91° |
| 2026-04-26 21:25 | -3.41039 | -50.70649 | 36914 ft | 437 kts | 91° |
| 2026-04-26 21:26 | -3.41258 | -50.64586 | 36910 ft | 437 kts | 91° |
| 2026-04-26 21:26 | -3.41480 | -50.58523 | 36911 ft | 437 kts | 91° |
| 2026-04-26 21:27 | -3.41707 | -50.52451 | 36911 ft | 437 kts | 91° |
| 2026-04-26 21:27 | -3.41930 | -50.46342 | 36910 ft | 437 kts | 91° |
| 2026-04-26 21:28 | -3.42146 | -50.40297 | 36916 ft | 437 kts | 91° |
| 2026-04-26 21:28 | -3.42364 | -50.34211 | 36916 ft | 437 kts | 91° |
| 2026-04-26 21:29 | -3.42589 | -50.28147 | 36916 ft | 437 kts | 91° |
| 2026-04-26 21:29 | -3.42774 | -50.23073 | 36915 ft | 437 kts | 91° |
| 2026-04-26 21:30 | -3.42990 | -50.16979 | 36913 ft | 437 kts | 91° |
| 2026-04-26 21:30 | -3.43207 | -50.10934 | 36919 ft | 437 kts | 91° |
| 2026-04-26 21:31 | -3.43424 | -50.04874 | 36914 ft | 437 kts | 91° |
| 2026-04-26 21:31 | -3.43640 | -49.98786 | 36912 ft | 437 kts | 91° |
| 2026-04-26 21:32 | -3.43860 | -49.92703 | 36925 ft | 437 kts | 91° |
| 2026-04-26 21:32 | -3.44080 | -49.86641 | 36921 ft | 437 kts | 91° |
| 2026-04-26 21:33 | -3.44297 | -49.80582 | 36925 ft | 437 kts | 91° |
| 2026-04-26 21:33 | -3.44513 | -49.74477 | 36922 ft | 437 kts | 91° |
| 2026-04-26 21:34 | -3.44722 | -49.68424 | 36926 ft | 437 kts | 91° |
| 2026-04-26 21:34 | -3.44938 | -49.62367 | 36922 ft | 437 kts | 91° |
| 2026-04-26 21:35 | -3.45158 | -49.56273 | 36927 ft | 437 kts | 91° |
| 2026-04-26 21:35 | -3.45379 | -49.50211 | 36926 ft | 437 kts | 91° |
| 2026-04-26 21:36 | -3.45600 | -49.44119 | 36926 ft | 437 kts | 91° |
| 2026-04-26 21:36 | -3.45821 | -49.38061 | 36933 ft | 437 kts | 91° |
| 2026-04-26 21:37 | -3.46047 | -49.31960 | 36926 ft | 437 kts | 91° |
| 2026-04-26 21:37 | -3.46270 | -49.25897 | 36932 ft | 438 kts | 91° |
| 2026-04-26 21:38 | -3.46493 | -49.19797 | 36924 ft | 438 kts | 91° |
| 2026-04-26 21:38 | -3.46712 | -49.13717 | 36908 ft | 439 kts | 91° |
| 2026-04-26 21:39 | -3.46926 | -49.07572 | 36906 ft | 440 kts | 91° |
| 2026-04-26 21:39 | -3.47154 | -49.01470 | 36920 ft | 440 kts | 91° |
| 2026-04-26 21:40 | -3.47375 | -48.95333 | 36929 ft | 441 kts | 91° |
| 2026-04-26 21:40 | -3.47594 | -48.89224 | 36932 ft | 441 kts | 91° |
| 2026-04-26 21:41 | -3.47809 | -48.83082 | 36934 ft | 441 kts | 91° |
| 2026-04-26 21:41 | -3.48026 | -48.76968 | 36939 ft | 440 kts | 91° |
| 2026-04-26 21:42 | -3.48244 | -48.70866 | 36940 ft | 440 kts | 91° |
| 2026-04-26 21:42 | -3.48471 | -48.64726 | 36946 ft | 440 kts | 91° |
| 2026-04-26 21:43 | -3.48689 | -48.58606 | 36948 ft | 439 kts | 91° |
| 2026-04-26 21:43 | -3.48902 | -48.52497 | 36947 ft | 439 kts | 91° |
| 2026-04-26 21:44 | -3.49117 | -48.46385 | 36946 ft | 438 kts | 91° |
| 2026-04-26 21:44 | -3.49327 | -48.40323 | 36949 ft | 437 kts | 91° |
| 2026-04-26 21:45 | -3.49533 | -48.34233 | 36950 ft | 436 kts | 91° |
| 2026-04-26 21:45 | -3.49731 | -48.28158 | 36949 ft | 436 kts | 91° |
| 2026-04-26 21:46 | -3.49932 | -48.22132 | 36948 ft | 435 kts | 91° |
| 2026-04-26 21:46 | -3.50130 | -48.16062 | 36946 ft | 435 kts | 91° |
| 2026-04-26 21:47 | -3.50329 | -48.10047 | 36947 ft | 434 kts | 91° |
| 2026-04-26 21:47 | -3.50541 | -48.04006 | 36942 ft | 434 kts | 91° |
| 2026-04-26 21:48 | -3.50752 | -47.97964 | 36942 ft | 434 kts | 91° |
| 2026-04-26 21:48 | -3.50951 | -47.91903 | 36939 ft | 434 kts | 91° |
| 2026-04-26 21:49 | -3.51123 | -47.85895 | 36936 ft | 434 kts | 91° |
| 2026-04-26 21:49 | -3.51296 | -47.79843 | 36935 ft | 434 kts | 91° |
| 2026-04-26 21:50 | -3.51446 | -47.74816 | 36933 ft | 434 kts | 91° |
| 2026-04-26 21:50 | -3.51657 | -47.67795 | 36935 ft | 434 kts | 91° |
| 2026-04-26 21:51 | -3.51835 | -47.61784 | 36943 ft | 434 kts | 91° |
| 2026-04-26 21:51 | -3.52009 | -47.55736 | 36941 ft | 434 kts | 91° |
| 2026-04-26 21:52 | -3.52185 | -47.49705 | 36940 ft | 434 kts | 91° |
| 2026-04-26 21:52 | -3.52369 | -47.43653 | 36937 ft | 434 kts | 91° |
| 2026-04-26 21:53 | -3.52570 | -47.37618 | 36945 ft | 434 kts | 92° |
| 2026-04-26 21:53 | -3.52803 | -47.31612 | 36948 ft | 433 kts | 92° |
| 2026-04-26 21:54 | -3.53036 | -47.25572 | 36942 ft | 433 kts | 92° |
| 2026-04-26 21:54 | -3.53252 | -47.19582 | 36943 ft | 433 kts | 92° |
| 2026-04-26 21:55 | -3.53465 | -47.13550 | 36942 ft | 433 kts | 92° |
| 2026-04-26 21:55 | -3.53684 | -47.07517 | 36942 ft | 433 kts | 92° |
| 2026-04-26 21:56 | -3.53903 | -47.01504 | 36943 ft | 433 kts | 92° |
| 2026-04-26 21:56 | -3.54120 | -46.95478 | 36942 ft | 433 kts | 92° |
| 2026-04-26 21:57 | -3.54340 | -46.89483 | 36941 ft | 433 kts | 92° |
| 2026-04-26 21:57 | -3.54556 | -46.83461 | 36943 ft | 433 kts | 92° |
| 2026-04-26 21:58 | -3.54776 | -46.77442 | 36946 ft | 433 kts | 92° |
| 2026-04-26 21:58 | -3.54987 | -46.71409 | 36943 ft | 433 kts | 91° |
| 2026-04-26 21:59 | -3.55170 | -46.65392 | 36944 ft | 433 kts | 91° |
| 2026-04-26 21:59 | -3.55363 | -46.59386 | 36942 ft | 433 kts | 91° |
| 2026-04-26 22:00 | -3.55558 | -46.53390 | 36942 ft | 433 kts | 91° |
| 2026-04-26 22:00 | -3.55756 | -46.47381 | 36943 ft | 433 kts | 91° |
| 2026-04-26 22:01 | -3.55956 | -46.41376 | 36947 ft | 433 kts | 91° |
| 2026-04-26 22:01 | -3.56145 | -46.35340 | 36945 ft | 433 kts | 91° |
| 2026-04-26 22:02 | -3.56304 | -46.30325 | 36951 ft | 433 kts | 91° |
| 2026-04-26 22:02 | -3.56529 | -46.23303 | 36947 ft | 433 kts | 91° |
| 2026-04-26 22:03 | -3.56718 | -46.17298 | 36946 ft | 433 kts | 91° |
| 2026-04-26 22:03 | -3.56917 | -46.11252 | 36940 ft | 433 kts | 91° |
| 2026-04-26 22:04 | -3.57112 | -46.05221 | 36939 ft | 434 kts | 91° |
| 2026-04-26 22:04 | -3.57302 | -45.99176 | 36934 ft | 434 kts | 91° |
| 2026-04-26 22:05 | -3.57494 | -45.93150 | 36936 ft | 434 kts | 92° |
| 2026-04-26 22:05 | -3.57683 | -45.87111 | 36941 ft | 434 kts | 91° |
| 2026-04-26 22:06 | -3.57870 | -45.81098 | 36944 ft | 434 kts | 92° |
| 2026-04-26 22:06 | -3.58066 | -45.75051 | 36940 ft | 434 kts | 92° |
| 2026-04-26 22:07 | -3.58255 | -45.68998 | 36945 ft | 434 kts | 92° |
| 2026-04-26 22:07 | -3.58407 | -45.63974 | 36947 ft | 434 kts | 92° |
| 2026-04-26 22:08 | -3.58623 | -45.56911 | 36945 ft | 434 kts | 92° |
| 2026-04-26 22:08 | -3.58816 | -45.50896 | 36944 ft | 434 kts | 92° |
| 2026-04-26 22:09 | -3.59018 | -45.44871 | 36944 ft | 434 kts | 92° |
| 2026-04-26 22:09 | -3.59207 | -45.38828 | 36944 ft | 434 kts | 92° |
| 2026-04-26 22:10 | -3.59383 | -45.32783 | 36951 ft | 433 kts | 92° |
| 2026-04-26 22:10 | -3.59568 | -45.26786 | 36945 ft | 433 kts | 92° |
| 2026-04-26 22:11 | -3.59765 | -45.20750 | 36944 ft | 433 kts | 92° |
| 2026-04-26 22:11 | -3.59948 | -45.14714 | 36947 ft | 433 kts | 92° |
| 2026-04-26 22:12 | -3.60126 | -45.08674 | 36943 ft | 433 kts | 92° |
| 2026-04-26 22:12 | -3.60320 | -45.02673 | 36943 ft | 433 kts | 92° |
| 2026-04-26 22:13 | -3.60523 | -44.96634 | 36945 ft | 433 kts | 92° |
| 2026-04-26 22:13 | -3.60718 | -44.90637 | 36942 ft | 433 kts | 92° |
| 2026-04-26 22:14 | -3.60902 | -44.84596 | 36947 ft | 433 kts | 92° |
| 2026-04-26 22:14 | -3.61095 | -44.78589 | 36945 ft | 433 kts | 92° |
| 2026-04-26 22:15 | -3.61291 | -44.72566 | 36939 ft | 433 kts | 92° |
| 2026-04-26 22:15 | -3.61486 | -44.66517 | 36944 ft | 434 kts | 92° |
| 2026-04-26 22:16 | -3.61673 | -44.60504 | 36947 ft | 434 kts | 92° |
| 2026-04-26 22:16 | -3.61855 | -44.54442 | 36941 ft | 434 kts | 91° |
| 2026-04-26 22:17 | -3.62062 | -44.48407 | 36935 ft | 434 kts | 92° |
| 2026-04-26 22:17 | -3.62356 | -44.42376 | 36936 ft | 434 kts | 93° |
| 2026-04-26 22:18 | -3.62662 | -44.36320 | 36939 ft | 435 kts | 92° |
| 2026-04-26 22:18 | -3.62946 | -44.30308 | 36942 ft | 435 kts | 92° |
| 2026-04-26 22:19 | -3.63220 | -44.24236 | 36944 ft | 435 kts | 92° |
| 2026-04-26 22:19 | -3.63458 | -44.18216 | 36945 ft | 435 kts | 91° |
| 2026-04-26 22:20 | -3.63600 | -44.13172 | 36944 ft | 435 kts | 91° |
| 2026-04-26 22:20 | -3.63752 | -44.07098 | 36945 ft | 435 kts | 91° |
| 2026-04-26 22:21 | -3.63919 | -44.01066 | 36951 ft | 435 kts | 91° |
| 2026-04-26 22:21 | -3.64098 | -43.94987 | 36946 ft | 435 kts | 91° |
| 2026-04-26 22:22 | -3.64279 | -43.88960 | 36952 ft | 435 kts | 91° |
| 2026-04-26 22:22 | -3.64458 | -43.82890 | 36948 ft | 435 kts | 91° |
| 2026-04-26 22:23 | -3.64635 | -43.76822 | 36951 ft | 435 kts | 91° |
| 2026-04-26 22:23 | -3.64812 | -43.70795 | 36955 ft | 435 kts | 91° |
| 2026-04-26 22:24 | -3.64992 | -43.64753 | 36954 ft | 435 kts | 91° |
| 2026-04-26 22:24 | -3.65168 | -43.58688 | 36960 ft | 435 kts | 91° |
| 2026-04-26 22:25 | -3.65336 | -43.52639 | 36956 ft | 434 kts | 91° |
| 2026-04-26 22:25 | -3.65511 | -43.46614 | 36955 ft | 434 kts | 91° |
| 2026-04-26 22:26 | -3.65683 | -43.40546 | 36957 ft | 434 kts | 91° |
| 2026-04-26 22:26 | -3.65854 | -43.34534 | 36958 ft | 434 kts | 91° |
| 2026-04-26 22:27 | -3.66032 | -43.28481 | 36962 ft | 434 kts | 91° |
| 2026-04-26 22:27 | -3.66212 | -43.22471 | 36963 ft | 433 kts | 91° |
| 2026-04-26 22:28 | -3.66387 | -43.16419 | 36961 ft | 433 kts | 91° |
| 2026-04-26 22:28 | -3.66556 | -43.10425 | 36961 ft | 433 kts | 91° |
| 2026-04-26 22:29 | -3.66720 | -43.04380 | 36957 ft | 433 kts | 91° |
| 2026-04-26 22:29 | -3.66891 | -42.98369 | 36957 ft | 434 kts | 91° |
| 2026-04-26 22:30 | -3.67062 | -42.92315 | 36955 ft | 434 kts | 91° |
| 2026-04-26 22:30 | -3.67231 | -42.86270 | 36952 ft | 434 kts | 91° |
| 2026-04-26 22:31 | -3.67397 | -42.80254 | 36966 ft | 434 kts | 91° |
| 2026-04-26 22:31 | -3.67570 | -42.74196 | 36961 ft | 434 kts | 91° |
| 2026-04-26 22:32 | -3.67739 | -42.68176 | 36963 ft | 434 kts | 91° |
| 2026-04-26 22:32 | -3.67912 | -42.62117 | 36959 ft | 434 kts | 91° |
| 2026-04-26 22:33 | -3.68164 | -42.53067 | 36963 ft | 434 kts | 91° |
| 2026-04-26 22:34 | -3.68333 | -42.47015 | 36959 ft | 434 kts | 91° |
| 2026-04-26 22:34 | -3.68497 | -42.40988 | 36962 ft | 435 kts | 91° |
| 2026-04-26 22:35 | -3.68654 | -42.34917 | 36961 ft | 435 kts | 91° |
| 2026-04-26 22:35 | -3.68713 | -42.28890 | 36961 ft | 435 kts | 90° |
| 2026-04-26 22:36 | -3.68721 | -42.22852 | 36964 ft | 435 kts | 90° |
| 2026-04-26 22:36 | -3.68742 | -42.16766 | 36952 ft | 435 kts | 90° |
| 2026-04-26 22:37 | -3.68780 | -42.10731 | 36962 ft | 435 kts | 91° |
| 2026-04-26 22:37 | -3.68861 | -42.04662 | 36962 ft | 435 kts | 91° |
| 2026-04-26 22:38 | -3.69057 | -41.98614 | 36961 ft | 435 kts | 92° |
| 2026-04-26 22:38 | -3.69270 | -41.92548 | 36965 ft | 436 kts | 92° |
| 2026-04-26 22:39 | -3.69457 | -41.86507 | 36964 ft | 436 kts | 92° |
| 2026-04-26 22:39 | -3.69631 | -41.80437 | 36972 ft | 436 kts | 92° |
| 2026-04-26 22:40 | -3.69804 | -41.74374 | 36979 ft | 435 kts | 91° |
| 2026-04-26 22:40 | -3.69971 | -41.68349 | 36986 ft | 434 kts | 91° |
| 2026-04-26 22:41 | -3.70146 | -41.62292 | 36984 ft | 434 kts | 91° |
| 2026-04-26 22:41 | -3.70319 | -41.56279 | 36987 ft | 434 kts | 92° |
| 2026-04-26 22:42 | -3.70500 | -41.50226 | 36988 ft | 434 kts | 91° |
| 2026-04-26 22:42 | -3.70679 | -41.44202 | 36992 ft | 434 kts | 91° |
| 2026-04-26 22:43 | -3.70850 | -41.38122 | 36992 ft | 434 kts | 91° |
| 2026-04-26 22:43 | -3.71019 | -41.32090 | 37000 ft | 435 kts | 91° |
| 2026-04-26 22:44 | -3.71186 | -41.26077 | 37002 ft | 435 kts | 91° |
| 2026-04-26 22:44 | -3.71355 | -41.20014 | 37008 ft | 435 kts | 91° |
| 2026-04-26 22:45 | -3.71537 | -41.13979 | 37010 ft | 435 kts | 91° |
| 2026-04-26 22:45 | -3.71701 | -41.07922 | 37011 ft | 435 kts | 91° |
| 2026-04-26 22:46 | -3.71836 | -41.01847 | 37016 ft | 435 kts | 91° |
| 2026-04-26 22:46 | -3.71970 | -40.95818 | 37013 ft | 435 kts | 91° |
| 2026-04-26 22:47 | -3.72115 | -40.89741 | 37009 ft | 435 kts | 91° |
| 2026-04-26 22:47 | -3.72264 | -40.83718 | 37006 ft | 436 kts | 91° |
| 2026-04-26 22:48 | -3.72404 | -40.77640 | 37006 ft | 436 kts | 91° |
| 2026-04-26 22:48 | -3.72538 | -40.71556 | 37004 ft | 436 kts | 91° |
| 2026-04-26 22:49 | -3.72683 | -40.65508 | 36999 ft | 437 kts | 91° |
| 2026-04-26 22:49 | -3.72822 | -40.59417 | 36994 ft | 437 kts | 91° |
| 2026-04-26 22:50 | -3.72962 | -40.53348 | 36990 ft | 438 kts | 91° |
| 2026-04-26 22:50 | -3.73114 | -40.47247 | 36987 ft | 438 kts | 91° |
| 2026-04-26 22:51 | -3.73262 | -40.41175 | 36991 ft | 438 kts | 91° |
| 2026-04-26 22:51 | -3.73404 | -40.35056 | 36992 ft | 439 kts | 91° |
| 2026-04-26 22:52 | -3.73538 | -40.28968 | 36994 ft | 439 kts | 91° |
| 2026-04-26 22:52 | -3.73680 | -40.22841 | 36992 ft | 439 kts | 91° |
| 2026-04-26 22:53 | -3.73817 | -40.16750 | 36995 ft | 439 kts | 91° |
| 2026-04-26 22:53 | -3.73961 | -40.10620 | 36946 ft | 440 kts | 91° |
| 2026-04-26 22:53 | -3.73996 | -40.07590 | 36617 ft | 439 kts | 90° |
| 2026-04-26 22:54 | -3.73957 | -40.04509 | 35763 ft | 442 kts | 89° |
| 2026-04-26 22:54 | -3.73860 | -40.01423 | 34876 ft | 444 kts | 88° |
| 2026-04-26 22:54 | -3.73737 | -39.98319 | 33956 ft | 447 kts | 88° |
| 2026-04-26 22:54 | -3.73613 | -39.95225 | 32970 ft | 449 kts | 88° |
| 2026-04-26 22:55 | -3.73500 | -39.92077 | 31890 ft | 453 kts | 88° |
| 2026-04-26 22:55 | -3.73402 | -39.88896 | 30810 ft | 458 kts | 89° |
| 2026-04-26 22:55 | -3.73314 | -39.85730 | 29692 ft | 463 kts | 89° |
| 2026-04-26 22:55 | -3.73228 | -39.82493 | 28411 ft | 467 kts | 89° |
| 2026-04-26 22:56 | -3.73145 | -39.79223 | 27173 ft | 470 kts | 88° |
| 2026-04-26 22:56 | -3.73062 | -39.75924 | 25967 ft | 468 kts | 88° |
| 2026-04-26 22:56 | -3.72981 | -39.72756 | 24852 ft | 455 kts | 88° |
| 2026-04-26 22:56 | -3.72899 | -39.69596 | 23791 ft | 453 kts | 88° |
| 2026-04-26 22:57 | -3.72817 | -39.66442 | 22592 ft | 447 kts | 88° |
| 2026-04-26 22:57 | -3.72737 | -39.63389 | 21432 ft | 441 kts | 88° |
| 2026-04-26 22:57 | -3.72655 | -39.60307 | 20317 ft | 443 kts | 88° |
| 2026-04-26 22:57 | -3.72567 | -39.57211 | 19393 ft | 444 kts | 88° |
| 2026-04-26 22:58 | -3.72478 | -39.54105 | 18520 ft | 444 kts | 88° |
| 2026-04-26 22:58 | -3.72392 | -39.51049 | 17592 ft | 444 kts | 88° |
| 2026-04-26 22:58 | -3.72306 | -39.47972 | 16761 ft | 440 kts | 88° |
| 2026-04-26 22:58 | -3.72223 | -39.44912 | 15944 ft | 437 kts | 88° |
| 2026-04-26 22:59 | -3.72142 | -39.41880 | 15163 ft | 434 kts | 88° |
| 2026-04-26 22:59 | -3.72060 | -39.38874 | 14401 ft | 430 kts | 88° |
| 2026-04-26 22:59 | -3.71979 | -39.35885 | 13647 ft | 427 kts | 88° |
| 2026-04-26 22:59 | -3.71900 | -39.32957 | 12893 ft | 423 kts | 89° |
| 2026-04-26 23:00 | -3.71820 | -39.30028 | 12179 ft | 417 kts | 89° |
| 2026-04-26 23:00 | -3.71739 | -39.27139 | 11471 ft | 412 kts | 89° |
| 2026-04-26 23:00 | -3.71660 | -39.24316 | 11194 ft | 395 kts | 89° |
| 2026-04-26 23:00 | -3.71587 | -39.21668 | 11003 ft | 365 kts | 89° |
| 2026-04-26 23:01 | -3.71519 | -39.19231 | 10827 ft | 334 kts | 89° |
| 2026-04-26 23:01 | -3.71456 | -39.16996 | 10629 ft | 310 kts | 89° |
| 2026-04-26 23:01 | -3.71398 | -39.14888 | 10344 ft | 303 kts | 89° |
| 2026-04-26 23:01 | -3.71339 | -39.12798 | 10114 ft | 297 kts | 89° |
| 2026-04-26 23:02 | -3.71282 | -39.10733 | 9906 ft | 294 kts | 89° |
| 2026-04-26 23:02 | -3.71225 | -39.08686 | 9786 ft | 294 kts | 89° |
| 2026-04-26 23:02 | -3.71170 | -39.06640 | 9658 ft | 293 kts | 89° |
| 2026-04-26 23:02 | -3.71115 | -39.04595 | 9531 ft | 292 kts | 89° |
| 2026-04-26 23:03 | -3.71058 | -39.02595 | 9404 ft | 287 kts | 89° |
| 2026-04-26 23:03 | -3.71001 | -39.00639 | 9271 ft | 275 kts | 89° |
| 2026-04-26 23:03 | -3.70947 | -38.98758 | 9113 ft | 266 kts | 89° |
| 2026-04-26 23:03 | -3.70895 | -38.96918 | 8789 ft | 263 kts | 89° |
| 2026-04-26 23:04 | -3.70844 | -38.95087 | 8433 ft | 262 kts | 89° |
| 2026-04-26 23:04 | -3.70796 | -38.93287 | 8075 ft | 260 kts | 90° |
| 2026-04-26 23:04 | -3.70748 | -38.91477 | 7718 ft | 259 kts | 90° |
| 2026-04-26 23:04 | -3.70700 | -38.89675 | 7354 ft | 258 kts | 90° |
| 2026-04-26 23:05 | -3.70652 | -38.87904 | 7007 ft | 248 kts | 90° |
| 2026-04-26 23:05 | -3.70604 | -38.86210 | 6654 ft | 238 kts | 90° |
| 2026-04-26 23:05 | -3.70556 | -38.84602 | 6329 ft | 229 kts | 90° |
| 2026-04-26 23:05 | -3.70509 | -38.83036 | 5995 ft | 220 kts | 90° |
| 2026-04-26 23:06 | -3.70466 | -38.81535 | 5692 ft | 212 kts | 90° |
| 2026-04-26 23:06 | -3.70541 | -38.80074 | 5316 ft | 209 kts | 100° |
| 2026-04-26 23:06 | -3.70839 | -38.78650 | 4828 ft | 205 kts | 105° |
| 2026-04-26 23:06 | -3.71182 | -38.77329 | 4524 ft | 193 kts | 107° |
| 2026-04-26 23:07 | -3.71525 | -38.76044 | 4253 ft | 187 kts | 107° |
| 2026-04-26 23:07 | -3.71744 | -38.75227 | 4098 ft | 179 kts | 107° |
| 2026-04-26 23:07 | -3.72164 | -38.73662 | 3798 ft | 168 kts | 107° |
| 2026-04-26 23:07 | -3.72456 | -38.72572 | 3592 ft | 161 kts | 107° |
| 2026-04-26 23:08 | -3.72740 | -38.71514 | 3390 ft | 154 kts | 107° |
| 2026-04-26 23:08 | -3.73013 | -38.70495 | 3194 ft | 149 kts | 107° |
| 2026-04-26 23:08 | -3.73277 | -38.69509 | 3004 ft | 142 kts | 107° |
| 2026-04-26 23:08 | -3.73525 | -38.68586 | 2828 ft | 137 kts | 107° |
| 2026-04-26 23:09 | -3.73770 | -38.67673 | 2656 ft | 135 kts | 107° |
| 2026-04-26 23:09 | -3.74014 | -38.66761 | 2486 ft | 135 kts | 107° |
| 2026-04-26 23:09 | -3.74257 | -38.65854 | 2307 ft | 134 kts | 106° |
| 2026-04-26 23:09 | -3.74500 | -38.64948 | 2131 ft | 134 kts | 107° |
| 2026-04-26 23:10 | -3.74740 | -38.64055 | 1962 ft | 134 kts | 106° |
| 2026-04-26 23:10 | -3.74982 | -38.63150 | 1783 ft | 134 kts | 106° |
| 2026-04-26 23:10 | -3.75224 | -38.62246 | 1618 ft | 135 kts | 105° |
| 2026-04-26 23:10 | -3.75468 | -38.61337 | 1435 ft | 134 kts | 106° |
| 2026-04-26 23:11 | -3.75708 | -38.60442 | 1259 ft | 134 kts | 105° |
| 2026-04-26 23:11 | -3.75950 | -38.59537 | 1089 ft | 134 kts | 105° |
| 2026-04-26 23:11 | -3.76188 | -38.58633 | 917 ft | 133 kts | 105° |
| 2026-04-26 23:11 | -3.76347 | -38.58036 | 864 ft | 133 kts | 105° |
| 2026-04-26 23:12 | -3.76591 | -38.57135 | 706 ft | 134 kts | 105° |
| 2026-04-26 23:12 | -3.76909 | -38.55932 | 457 ft | 135 kts | 104° |
| 2026-04-26 23:12 | -3.77159 | -38.55018 | 262 ft | 136 kts | 105° |
| 2026-04-26 23:12 | -3.77406 | -38.54103 | 106 ft | 131 kts | 104° |
| 2026-04-26 23:13 | -3.77552 | -38.53556 | 92 ft | 112 kts | 105° |
| 2026-04-26 23:13 | -3.77707 | -38.52973 | 91 ft | 62 kts | 105° |
| 2026-04-26 23:13 | -3.77786 | -38.52677 | 93 ft | 32 kts | 105° |
| 2026-04-26 23:13 | -3.77870 | -38.52652 | 91 ft | 14 kts | 242° |
| 2026-04-26 23:14 | -3.77897 | -38.52708 | 94 ft | 13 kts | 244° |
| 2026-04-26 23:14 | -3.77911 | -38.52790 | 94 ft | 11 kts | 283° |
| 2026-04-26 23:14 | -3.77892 | -38.52861 | 93 ft | 10 kts | 285° |
| 2026-04-26 23:14 | -3.77874 | -38.52926 | 92 ft | 9 kts | 285° |
| 2026-04-26 23:15 | -3.77859 | -38.52984 | 91 ft | 8 kts | 285° |
| 2026-04-26 23:15 | -3.77843 | -38.53044 | 91 ft | 12 kts | 285° |
| 2026-04-26 23:15 | -3.77810 | -38.53166 | 92 ft | 24 kts | 285° |
| 2026-04-26 23:15 | -3.77761 | -38.53349 | 93 ft | 29 kts | 285° |
| 2026-04-26 23:16 | -3.77708 | -38.53548 | 93 ft | 30 kts | 284° |
| 2026-04-26 23:16 | -3.77660 | -38.53725 | 92 ft | 20 kts | 281° |
| 2026-04-26 23:16 | -3.77715 | -38.53846 | 93 ft | 18 kts | 241° |
| 2026-04-26 23:16 | -3.77717 | -38.53952 | 91 ft | 13 kts | 286° |
| 2026-04-26 23:17 | -3.77703 | -38.54031 | 91 ft | 9 kts | 242° |
| 2026-04-26 23:17 | -3.77763 | -38.54055 | 92 ft | 6 kts | 195° |
| 2026-04-26 23:17 | -3.77779 | -38.54059 | 91 ft | 1 kts | 196° |
| 2026-04-26 23:17 | -3.77782 | -38.54060 | 91 ft | 0 kts | 198° |